sensor_id;sensor_type;location;lat;lon;timestamp;P1;durP1;ratioP1;P2;durP2;ratioP2
69542;SDS011;56762;49.494;11.768;2023-04-19T00:00:58;11.27;;;5.45;;
69542;SDS011;56762;49.494;11.768;2023-04-19T00:03:27;11.63;;;5.72;;
69542;SDS011;56762;49.494;11.768;2023-04-19T00:05:57;11.00;;;5.63;;
69542;SDS011;56762;49.494;11.768;2023-04-19T00:08:25;10.13;;;5.20;;
69542;SDS011;56762;49.494;11.768;2023-04-19T00:10:53;13.90;;;5.83;;
69542;SDS011;56762;49.494;11.768;2023-04-19T00:13:20;14.15;;;6.07;;
69542;SDS011;56762;49.494;11.768;2023-04-19T00:15:48;11.70;;;6.05;;
69542;SDS011;56762;49.494;11.768;2023-04-19T00:18:16;10.82;;;5.78;;
69542;SDS011;56762;49.494;11.768;2023-04-19T00:20:44;12.35;;;6.07;;
69542;SDS011;56762;49.494;11.768;2023-04-19T00:23:13;11.90;;;5.40;;
69542;SDS011;56762;49.494;11.768;2023-04-19T00:25:41;10.77;;;6.15;;
69542;SDS011;56762;49.494;11.768;2023-04-19T00:28:08;11.05;;;5.45;;
69542;SDS011;56762;49.494;11.768;2023-04-19T00:30:36;9.75;;;5.63;;
69542;SDS011;56762;49.494;11.768;2023-04-19T00:33:04;11.27;;;5.72;;
69542;SDS011;56762;49.494;11.768;2023-04-19T00:35:38;12.00;;;6.20;;
69542;SDS011;56762;49.494;11.768;2023-04-19T00:38:06;12.85;;;5.75;;
69542;SDS011;56762;49.494;11.768;2023-04-19T00:40:36;16.20;;;6.15;;
69542;SDS011;56762;49.494;11.768;2023-04-19T00:43:04;11.48;;;6.25;;
69542;SDS011;56762;49.494;11.768;2023-04-19T00:45:31;11.70;;;6.07;;
69542;SDS011;56762;49.494;11.768;2023-04-19T00:48:01;12.47;;;6.00;;
69542;SDS011;56762;49.494;11.768;2023-04-19T00:50:29;10.82;;;6.07;;
69542;SDS011;56762;49.494;11.768;2023-04-19T00:52:57;10.55;;;5.88;;
69542;SDS011;56762;49.494;11.768;2023-04-19T00:55:25;10.95;;;5.93;;
69542;SDS011;56762;49.494;11.768;2023-04-19T00:57:54;11.30;;;6.13;;
69542;SDS011;56762;49.494;11.768;2023-04-19T01:00:23;11.73;;;5.77;;
69542;SDS011;56762;49.494;11.768;2023-04-19T01:02:51;11.23;;;5.57;;
69542;SDS011;56762;49.494;11.768;2023-04-19T01:05:20;10.73;;;5.43;;
69542;SDS011;56762;49.494;11.768;2023-04-19T01:07:48;11.55;;;6.15;;
69542;SDS011;56762;49.494;11.768;2023-04-19T01:10:16;11.40;;;5.88;;
69542;SDS011;56762;49.494;11.768;2023-04-19T01:12:44;12.57;;;5.83;;
69542;SDS011;56762;49.494;11.768;2023-04-19T01:15:13;10.55;;;6.30;;
69542;SDS011;56762;49.494;11.768;2023-04-19T01:17:41;13.68;;;7.13;;
69542;SDS011;56762;49.494;11.768;2023-04-19T01:20:09;13.70;;;6.72;;
69542;SDS011;56762;49.494;11.768;2023-04-19T01:22:40;12.80;;;6.60;;
69542;SDS011;56762;49.494;11.768;2023-04-19T01:25:07;13.23;;;6.40;;
69542;SDS011;56762;49.494;11.768;2023-04-19T01:27:36;13.00;;;6.28;;
69542;SDS011;56762;49.494;11.768;2023-04-19T01:30:04;12.95;;;6.65;;
69542;SDS011;56762;49.494;11.768;2023-04-19T01:32:33;13.25;;;6.57;;
69542;SDS011;56762;49.494;11.768;2023-04-19T01:35:01;11.73;;;6.18;;
69542;SDS011;56762;49.494;11.768;2023-04-19T01:37:29;12.30;;;5.70;;
69542;SDS011;56762;49.494;11.768;2023-04-19T01:39:58;10.88;;;5.38;;
69542;SDS011;56762;49.494;11.768;2023-04-19T01:42:26;13.00;;;6.45;;
69542;SDS011;56762;49.494;11.768;2023-04-19T01:44:54;14.20;;;6.55;;
69542;SDS011;56762;49.494;11.768;2023-04-19T01:47:22;14.38;;;7.22;;
69542;SDS011;56762;49.494;11.768;2023-04-19T01:49:50;29.20;;;14.87;;
69542;SDS011;56762;49.494;11.768;2023-04-19T01:52:18;20.23;;;9.15;;
69542;SDS011;56762;49.494;11.768;2023-04-19T01:54:46;23.48;;;13.32;;
69542;SDS011;56762;49.494;11.768;2023-04-19T01:57:15;19.15;;;10.73;;
69542;SDS011;56762;49.494;11.768;2023-04-19T01:59:44;16.02;;;8.07;;
69542;SDS011;56762;49.494;11.768;2023-04-19T02:02:11;15.83;;;8.50;;
69542;SDS011;56762;49.494;11.768;2023-04-19T02:04:39;14.88;;;8.10;;
69542;SDS011;56762;49.494;11.768;2023-04-19T02:07:07;13.13;;;7.10;;
69542;SDS011;56762;49.494;11.768;2023-04-19T02:09:35;11.20;;;5.35;;
69542;SDS011;56762;49.494;11.768;2023-04-19T02:12:03;11.23;;;5.30;;
69542;SDS011;56762;49.494;11.768;2023-04-19T02:14:32;11.90;;;5.70;;
69542;SDS011;56762;49.494;11.768;2023-04-19T02:17:01;11.07;;;6.05;;
69542;SDS011;56762;49.494;11.768;2023-04-19T02:19:29;10.10;;;5.65;;
69542;SDS011;56762;49.494;11.768;2023-04-19T02:21:56;9.45;;;5.15;;
69542;SDS011;56762;49.494;11.768;2023-04-19T02:24:24;9.18;;;5.28;;
69542;SDS011;56762;49.494;11.768;2023-04-19T02:26:52;11.10;;;6.20;;
69542;SDS011;56762;49.494;11.768;2023-04-19T02:29:20;11.82;;;6.10;;
69542;SDS011;56762;49.494;11.768;2023-04-19T02:31:49;12.50;;;6.00;;
69542;SDS011;56762;49.494;11.768;2023-04-19T02:34:17;12.65;;;6.00;;
69542;SDS011;56762;49.494;11.768;2023-04-19T02:36:45;10.80;;;5.45;;
69542;SDS011;56762;49.494;11.768;2023-04-19T02:39:13;10.93;;;5.57;;
69542;SDS011;56762;49.494;11.768;2023-04-19T02:41:41;12.32;;;5.57;;
69542;SDS011;56762;49.494;11.768;2023-04-19T02:44:09;10.13;;;5.65;;
69542;SDS011;56762;49.494;11.768;2023-04-19T02:46:37;10.98;;;6.00;;
69542;SDS011;56762;49.494;11.768;2023-04-19T02:49:06;11.10;;;5.72;;
69542;SDS011;56762;49.494;11.768;2023-04-19T02:51:35;12.80;;;6.23;;
69542;SDS011;56762;49.494;11.768;2023-04-19T02:54:02;12.38;;;5.82;;
69542;SDS011;56762;49.494;11.768;2023-04-19T02:56:30;12.68;;;5.80;;
69542;SDS011;56762;49.494;11.768;2023-04-19T02:58:59;12.38;;;6.72;;
69542;SDS011;56762;49.494;11.768;2023-04-19T03:01:27;12.95;;;6.10;;
69542;SDS011;56762;49.494;11.768;2023-04-19T03:03:55;11.73;;;5.87;;
69542;SDS011;56762;49.494;11.768;2023-04-19T03:06:25;9.88;;;5.57;;
69542;SDS011;56762;49.494;11.768;2023-04-19T03:08:53;12.48;;;6.38;;
69542;SDS011;56762;49.494;11.768;2023-04-19T03:11:20;13.18;;;6.32;;
69542;SDS011;56762;49.494;11.768;2023-04-19T03:13:48;13.23;;;7.03;;
69542;SDS011;56762;49.494;11.768;2023-04-19T03:16:16;12.70;;;6.17;;
69542;SDS011;56762;49.494;11.768;2023-04-19T03:18:44;11.52;;;5.63;;
69542;SDS011;56762;49.494;11.768;2023-04-19T03:21:14;13.48;;;6.10;;
69542;SDS011;56762;49.494;11.768;2023-04-19T03:23:43;12.20;;;6.13;;
69542;SDS011;56762;49.494;11.768;2023-04-19T03:26:11;12.50;;;6.95;;
69542;SDS011;56762;49.494;11.768;2023-04-19T03:28:39;11.50;;;6.40;;
69542;SDS011;56762;49.494;11.768;2023-04-19T03:31:07;12.07;;;6.20;;
69542;SDS011;56762;49.494;11.768;2023-04-19T03:33:34;11.27;;;6.25;;
69542;SDS011;56762;49.494;11.768;2023-04-19T03:36:02;14.85;;;6.60;;
69542;SDS011;56762;49.494;11.768;2023-04-19T03:38:31;16.50;;;7.32;;
69542;SDS011;56762;49.494;11.768;2023-04-19T03:41:00;14.93;;;6.77;;
69542;SDS011;56762;49.494;11.768;2023-04-19T03:43:28;12.63;;;6.20;;
69542;SDS011;56762;49.494;11.768;2023-04-19T03:45:56;12.07;;;6.07;;
69542;SDS011;56762;49.494;11.768;2023-04-19T03:48:23;13.68;;;6.53;;
69542;SDS011;56762;49.494;11.768;2023-04-19T03:50:51;13.93;;;6.68;;
69542;SDS011;56762;49.494;11.768;2023-04-19T03:53:19;13.23;;;6.93;;
69542;SDS011;56762;49.494;11.768;2023-04-19T03:55:46;12.43;;;6.75;;
69542;SDS011;56762;49.494;11.768;2023-04-19T03:58:16;14.52;;;6.72;;
69542;SDS011;56762;49.494;11.768;2023-04-19T04:00:44;12.20;;;5.72;;
69542;SDS011;56762;49.494;11.768;2023-04-19T04:03:12;15.85;;;7.25;;
69542;SDS011;56762;49.494;11.768;2023-04-19T04:05:40;14.10;;;6.70;;
69542;SDS011;56762;49.494;11.768;2023-04-19T04:08:08;10.85;;;6.10;;
69542;SDS011;56762;49.494;11.768;2023-04-19T04:10:35;15.07;;;6.97;;
69542;SDS011;56762;49.494;11.768;2023-04-19T04:13:03;13.38;;;6.93;;
69542;SDS011;56762;49.494;11.768;2023-04-19T04:15:32;14.85;;;6.82;;
69542;SDS011;56762;49.494;11.768;2023-04-19T04:18:00;13.47;;;6.50;;
69542;SDS011;56762;49.494;11.768;2023-04-19T04:20:29;13.57;;;6.55;;
69542;SDS011;56762;49.494;11.768;2023-04-19T04:22:56;12.80;;;6.90;;
69542;SDS011;56762;49.494;11.768;2023-04-19T04:25:24;12.50;;;6.55;;
69542;SDS011;56762;49.494;11.768;2023-04-19T04:27:54;13.25;;;6.28;;
69542;SDS011;56762;49.494;11.768;2023-04-19T04:30:21;12.50;;;6.67;;
69542;SDS011;56762;49.494;11.768;2023-04-19T04:32:54;11.50;;;6.93;;
69542;SDS011;56762;49.494;11.768;2023-04-19T04:35:23;14.00;;;6.75;;
69542;SDS011;56762;49.494;11.768;2023-04-19T04:37:54;13.15;;;7.00;;
69542;SDS011;56762;49.494;11.768;2023-04-19T04:40:21;13.50;;;6.88;;
69542;SDS011;56762;49.494;11.768;2023-04-19T04:42:49;13.83;;;7.23;;
69542;SDS011;56762;49.494;11.768;2023-04-19T04:45:18;12.98;;;6.60;;
69542;SDS011;56762;49.494;11.768;2023-04-19T04:48:12;12.68;;;7.10;;
69542;SDS011;56762;49.494;11.768;2023-04-19T04:50:41;12.18;;;6.38;;
69542;SDS011;56762;49.494;11.768;2023-04-19T04:53:09;12.30;;;6.63;;
69542;SDS011;56762;49.494;11.768;2023-04-19T04:55:38;11.37;;;5.53;;
69542;SDS011;56762;49.494;11.768;2023-04-19T04:58:06;11.07;;;5.57;;
69542;SDS011;56762;49.494;11.768;2023-04-19T05:00:33;13.15;;;6.53;;
69542;SDS011;56762;49.494;11.768;2023-04-19T05:03:01;13.93;;;6.82;;
69542;SDS011;56762;49.494;11.768;2023-04-19T05:05:31;13.73;;;6.95;;
69542;SDS011;56762;49.494;11.768;2023-04-19T05:07:58;11.43;;;6.20;;
69542;SDS011;56762;49.494;11.768;2023-04-19T05:10:26;11.57;;;6.07;;
69542;SDS011;56762;49.494;11.768;2023-04-19T05:12:54;11.15;;;5.90;;
69542;SDS011;56762;49.494;11.768;2023-04-19T05:15:22;12.68;;;6.15;;
69542;SDS011;56762;49.494;11.768;2023-04-19T05:17:50;11.90;;;6.13;;
69542;SDS011;56762;49.494;11.768;2023-04-19T05:20:18;13.30;;;5.97;;
69542;SDS011;56762;49.494;11.768;2023-04-19T05:22:47;11.77;;;6.38;;
69542;SDS011;56762;49.494;11.768;2023-04-19T05:25:15;10.77;;;5.70;;
69542;SDS011;56762;49.494;11.768;2023-04-19T05:27:43;10.73;;;5.80;;
69542;SDS011;56762;49.494;11.768;2023-04-19T05:30:10;11.60;;;5.75;;
69542;SDS011;56762;49.494;11.768;2023-04-19T05:32:38;12.80;;;6.30;;
69542;SDS011;56762;49.494;11.768;2023-04-19T05:35:07;10.95;;;5.30;;
69542;SDS011;56762;49.494;11.768;2023-04-19T05:37:36;11.65;;;5.82;;
69542;SDS011;56762;49.494;11.768;2023-04-19T05:40:06;12.35;;;6.07;;
69542;SDS011;56762;49.494;11.768;2023-04-19T05:42:36;11.57;;;6.13;;
69542;SDS011;56762;49.494;11.768;2023-04-19T05:45:05;10.43;;;5.47;;
69542;SDS011;56762;49.494;11.768;2023-04-19T05:47:33;11.50;;;5.90;;
69542;SDS011;56762;49.494;11.768;2023-04-19T05:50:01;11.77;;;5.93;;
69542;SDS011;56762;49.494;11.768;2023-04-19T05:52:29;11.68;;;6.10;;
69542;SDS011;56762;49.494;11.768;2023-04-19T05:54:57;12.23;;;6.03;;
69542;SDS011;56762;49.494;11.768;2023-04-19T05:57:26;11.67;;;5.83;;
69542;SDS011;56762;49.494;11.768;2023-04-19T05:59:54;11.63;;;6.03;;
69542;SDS011;56762;49.494;11.768;2023-04-19T06:02:22;11.43;;;6.00;;
69542;SDS011;56762;49.494;11.768;2023-04-19T06:04:51;11.52;;;6.03;;
69542;SDS011;56762;49.494;11.768;2023-04-19T06:07:18;10.45;;;6.07;;
69542;SDS011;56762;49.494;11.768;2023-04-19T06:09:57;12.97;;;6.60;;
69542;SDS011;56762;49.494;11.768;2023-04-19T06:12:26;11.25;;;6.22;;
69542;SDS011;56762;49.494;11.768;2023-04-19T06:14:54;11.45;;;6.30;;
69542;SDS011;56762;49.494;11.768;2023-04-19T06:17:22;13.38;;;6.90;;
69542;SDS011;56762;49.494;11.768;2023-04-19T06:19:51;12.43;;;6.93;;
69542;SDS011;56762;49.494;11.768;2023-04-19T06:22:19;13.27;;;7.20;;
69542;SDS011;56762;49.494;11.768;2023-04-19T06:24:47;12.55;;;6.78;;
69542;SDS011;56762;49.494;11.768;2023-04-19T06:27:15;16.40;;;8.00;;
69542;SDS011;56762;49.494;11.768;2023-04-19T06:29:44;12.40;;;7.18;;
69542;SDS011;56762;49.494;11.768;2023-04-19T06:32:13;15.60;;;7.88;;
69542;SDS011;56762;49.494;11.768;2023-04-19T06:34:41;17.23;;;9.03;;
69542;SDS011;56762;49.494;11.768;2023-04-19T06:37:09;15.45;;;7.95;;
69542;SDS011;56762;49.494;11.768;2023-04-19T06:39:37;11.55;;;7.03;;
69542;SDS011;56762;49.494;11.768;2023-04-19T06:42:05;13.88;;;7.22;;
69542;SDS011;56762;49.494;11.768;2023-04-19T06:44:33;13.20;;;7.20;;
69542;SDS011;56762;49.494;11.768;2023-04-19T06:47:02;29.03;;;15.57;;
69542;SDS011;56762;49.494;11.768;2023-04-19T06:49:31;25.70;;;14.88;;
69542;SDS011;56762;49.494;11.768;2023-04-19T06:51:58;15.25;;;8.43;;
69542;SDS011;56762;49.494;11.768;2023-04-19T06:54:27;14.05;;;7.75;;
69542;SDS011;56762;49.494;11.768;2023-04-19T06:56:55;12.13;;;6.97;;
69542;SDS011;56762;49.494;11.768;2023-04-19T06:59:22;11.93;;;6.90;;
69542;SDS011;56762;49.494;11.768;2023-04-19T07:01:53;12.80;;;7.68;;
69542;SDS011;56762;49.494;11.768;2023-04-19T07:04:25;16.38;;;7.22;;
69542;SDS011;56762;49.494;11.768;2023-04-19T07:06:53;14.50;;;6.78;;
69542;SDS011;56762;49.494;11.768;2023-04-19T07:09:21;11.40;;;6.57;;
69542;SDS011;56762;49.494;11.768;2023-04-19T07:11:49;15.53;;;7.03;;
69542;SDS011;56762;49.494;11.768;2023-04-19T07:14:17;15.00;;;7.07;;
69542;SDS011;56762;49.494;11.768;2023-04-19T07:16:45;12.95;;;7.03;;
69542;SDS011;56762;49.494;11.768;2023-04-19T07:19:15;11.40;;;6.60;;
69542;SDS011;56762;49.494;11.768;2023-04-19T07:21:45;12.32;;;6.65;;
69542;SDS011;56762;49.494;11.768;2023-04-19T07:24:13;13.43;;;7.57;;
69542;SDS011;56762;49.494;11.768;2023-04-19T07:26:41;16.67;;;7.78;;
69542;SDS011;56762;49.494;11.768;2023-04-19T07:29:10;14.15;;;7.20;;
69542;SDS011;56762;49.494;11.768;2023-04-19T07:31:40;12.50;;;6.95;;
69542;SDS011;56762;49.494;11.768;2023-04-19T07:34:08;14.18;;;7.10;;
69542;SDS011;56762;49.494;11.768;2023-04-19T07:36:36;13.00;;;6.20;;
69542;SDS011;56762;49.494;11.768;2023-04-19T07:39:05;14.73;;;7.13;;
69542;SDS011;56762;49.494;11.768;2023-04-19T07:41:33;14.02;;;7.00;;
69542;SDS011;56762;49.494;11.768;2023-04-19T07:44:01;14.90;;;6.55;;
69542;SDS011;56762;49.494;11.768;2023-04-19T07:46:29;11.93;;;6.68;;
69542;SDS011;56762;49.494;11.768;2023-04-19T07:48:57;12.37;;;6.53;;
69542;SDS011;56762;49.494;11.768;2023-04-19T07:51:25;13.40;;;7.15;;
69542;SDS011;56762;49.494;11.768;2023-04-19T07:53:52;13.73;;;6.72;;
69542;SDS011;56762;49.494;11.768;2023-04-19T07:56:21;11.98;;;6.68;;
69542;SDS011;56762;49.494;11.768;2023-04-19T07:58:51;10.95;;;6.22;;
69542;SDS011;56762;49.494;11.768;2023-04-19T08:01:33;10.53;;;6.00;;
69542;SDS011;56762;49.494;11.768;2023-04-19T08:04:02;12.80;;;6.65;;
69542;SDS011;56762;49.494;11.768;2023-04-19T08:06:30;12.15;;;7.10;;
69542;SDS011;56762;49.494;11.768;2023-04-19T08:08:58;12.55;;;6.57;;
69542;SDS011;56762;49.494;11.768;2023-04-19T08:11:27;12.95;;;7.53;;
69542;SDS011;56762;49.494;11.768;2023-04-19T08:13:55;10.77;;;6.10;;
69542;SDS011;56762;49.494;11.768;2023-04-19T08:16:40;11.75;;;6.20;;
69542;SDS011;56762;49.494;11.768;2023-04-19T08:19:28;11.38;;;6.15;;
69542;SDS011;56762;49.494;11.768;2023-04-19T08:21:56;12.00;;;6.20;;
69542;SDS011;56762;49.494;11.768;2023-04-19T08:24:24;12.00;;;6.03;;
69542;SDS011;56762;49.494;11.768;2023-04-19T08:26:53;12.37;;;6.13;;
69542;SDS011;56762;49.494;11.768;2023-04-19T08:29:25;11.43;;;6.50;;
69542;SDS011;56762;49.494;11.768;2023-04-19T08:31:52;14.00;;;7.07;;
69542;SDS011;56762;49.494;11.768;2023-04-19T08:34:21;12.77;;;7.05;;
69542;SDS011;56762;49.494;11.768;2023-04-19T08:36:48;13.25;;;6.88;;
69542;SDS011;56762;49.494;11.768;2023-04-19T08:39:29;13.80;;;7.33;;
69542;SDS011;56762;49.494;11.768;2023-04-19T08:42:02;12.00;;;7.03;;
69542;SDS011;56762;49.494;11.768;2023-04-19T08:44:43;11.98;;;6.70;;
69542;SDS011;56762;49.494;11.768;2023-04-19T08:47:15;13.13;;;7.05;;
69542;SDS011;56762;49.494;11.768;2023-04-19T08:49:56;10.98;;;5.78;;
69542;SDS011;56762;49.494;11.768;2023-04-19T08:52:46;12.37;;;6.90;;
69542;SDS011;56762;49.494;11.768;2023-04-19T08:55:26;11.07;;;5.90;;
69542;SDS011;56762;49.494;11.768;2023-04-19T08:57:56;12.48;;;5.80;;
69542;SDS011;56762;49.494;11.768;2023-04-19T09:00:24;10.88;;;5.72;;
69542;SDS011;56762;49.494;11.768;2023-04-19T09:02:52;12.35;;;5.20;;
69542;SDS011;56762;49.494;11.768;2023-04-19T09:05:21;8.77;;;4.33;;
69542;SDS011;56762;49.494;11.768;2023-04-19T09:07:49;9.40;;;4.53;;
69542;SDS011;56762;49.494;11.768;2023-04-19T09:10:18;8.70;;;4.43;;
69542;SDS011;56762;49.494;11.768;2023-04-19T09:15:39;13.30;;;4.32;;
69542;SDS011;56762;49.494;11.768;2023-04-19T09:18:10;8.47;;;4.13;;
69542;SDS011;56762;49.494;11.768;2023-04-19T09:20:39;8.48;;;4.75;;
69542;SDS011;56762;49.494;11.768;2023-04-19T09:23:09;9.23;;;3.88;;
69542;SDS011;56762;49.494;11.768;2023-04-19T09:25:38;9.20;;;4.07;;
69542;SDS011;56762;49.494;11.768;2023-04-19T09:28:29;7.53;;;4.00;;
69542;SDS011;56762;49.494;11.768;2023-04-19T09:30:57;8.47;;;3.97;;
69542;SDS011;56762;49.494;11.768;2023-04-19T09:34:09;7.90;;;4.00;;
69542;SDS011;56762;49.494;11.768;2023-04-19T09:36:39;8.00;;;3.60;;
69542;SDS011;56762;49.494;11.768;2023-04-19T09:39:07;6.40;;;3.38;;
69542;SDS011;56762;49.494;11.768;2023-04-19T09:41:36;6.10;;;3.25;;
69542;SDS011;56762;49.494;11.768;2023-04-19T09:44:19;6.37;;;3.27;;
69542;SDS011;56762;49.494;11.768;2023-04-19T09:47:20;8.75;;;3.85;;
69542;SDS011;56762;49.494;11.768;2023-04-19T09:50:02;6.28;;;3.50;;
69542;SDS011;56762;49.494;11.768;2023-04-19T09:52:48;7.30;;;4.28;;
69542;SDS011;56762;49.494;11.768;2023-04-19T09:55:17;6.75;;;3.40;;
69542;SDS011;56762;49.494;11.768;2023-04-19T09:57:49;6.47;;;3.10;;
69542;SDS011;56762;49.494;11.768;2023-04-19T10:00:20;7.13;;;3.30;;
69542;SDS011;56762;49.494;11.768;2023-04-19T10:02:50;7.32;;;3.08;;
69542;SDS011;56762;49.494;11.768;2023-04-19T10:05:23;6.70;;;3.13;;
69542;SDS011;56762;49.494;11.768;2023-04-19T10:07:52;6.80;;;3.20;;
69542;SDS011;56762;49.494;11.768;2023-04-19T10:10:25;5.33;;;2.80;;
69542;SDS011;56762;49.494;11.768;2023-04-19T10:12:57;6.13;;;2.90;;
69542;SDS011;56762;49.494;11.768;2023-04-19T10:15:32;5.60;;;2.80;;
69542;SDS011;56762;49.494;11.768;2023-04-19T10:18:16;6.43;;;2.65;;
69542;SDS011;56762;49.494;11.768;2023-04-19T10:20:46;5.13;;;2.80;;
69542;SDS011;56762;49.494;11.768;2023-04-19T10:23:18;5.97;;;2.67;;
69542;SDS011;56762;49.494;11.768;2023-04-19T10:25:47;6.43;;;2.80;;
69542;SDS011;56762;49.494;11.768;2023-04-19T10:28:15;5.93;;;2.80;;
69542;SDS011;56762;49.494;11.768;2023-04-19T10:33:33;5.65;;;3.10;;
69542;SDS011;56762;49.494;11.768;2023-04-19T10:36:03;5.40;;;2.40;;
69542;SDS011;56762;49.494;11.768;2023-04-19T10:38:36;4.75;;;2.63;;
69542;SDS011;56762;49.494;11.768;2023-04-19T10:41:06;6.20;;;2.97;;
69542;SDS011;56762;49.494;11.768;2023-04-19T10:43:43;6.70;;;3.15;;
69542;SDS011;56762;49.494;11.768;2023-04-19T10:46:14;6.70;;;2.83;;
69542;SDS011;56762;49.494;11.768;2023-04-19T10:48:50;5.40;;;2.90;;
69542;SDS011;56762;49.494;11.768;2023-04-19T10:51:21;4.78;;;2.90;;
69542;SDS011;56762;49.494;11.768;2023-04-19T10:53:56;5.43;;;2.90;;
69542;SDS011;56762;49.494;11.768;2023-04-19T10:59:25;5.35;;;3.00;;
69542;SDS011;56762;49.494;11.768;2023-04-19T11:01:55;8.07;;;3.73;;
69542;SDS011;56762;49.494;11.768;2023-04-19T11:07:27;5.00;;;2.90;;
69542;SDS011;56762;49.494;11.768;2023-04-19T11:09:55;5.25;;;2.50;;
69542;SDS011;56762;49.494;11.768;2023-04-19T11:12:22;26.23;;;9.23;;
69542;SDS011;56762;49.494;11.768;2023-04-19T11:14:51;5.60;;;2.77;;
69542;SDS011;56762;49.494;11.768;2023-04-19T11:17:22;5.97;;;2.67;;
69542;SDS011;56762;49.494;11.768;2023-04-19T11:19:53;6.25;;;2.80;;
69542;SDS011;56762;49.494;11.768;2023-04-19T11:22:25;5.78;;;2.83;;
69542;SDS011;56762;49.494;11.768;2023-04-19T11:25:03;4.85;;;2.47;;
69542;SDS011;56762;49.494;11.768;2023-04-19T11:27:32;5.73;;;2.33;;
69542;SDS011;56762;49.494;11.768;2023-04-19T11:30:01;6.00;;;2.42;;
69542;SDS011;56762;49.494;11.768;2023-04-19T11:32:32;5.03;;;2.58;;
69542;SDS011;56762;49.494;11.768;2023-04-19T11:35:04;4.05;;;1.77;;
69542;SDS011;56762;49.494;11.768;2023-04-19T11:37:34;4.05;;;1.77;;
69542;SDS011;56762;49.494;11.768;2023-04-19T11:40:04;3.53;;;1.90;;
69542;SDS011;56762;49.494;11.768;2023-04-19T11:42:33;2.90;;;1.67;;
69542;SDS011;56762;49.494;11.768;2023-04-19T11:45:01;5.20;;;2.10;;
69542;SDS011;56762;49.494;11.768;2023-04-19T11:47:32;6.57;;;1.80;;
69542;SDS011;56762;49.494;11.768;2023-04-19T11:53:08;4.40;;;1.77;;
69542;SDS011;56762;49.494;11.768;2023-04-19T11:55:37;3.38;;;1.67;;
69542;SDS011;56762;49.494;11.768;2023-04-19T11:58:06;3.35;;;1.30;;
69542;SDS011;56762;49.494;11.768;2023-04-19T12:00:35;3.75;;;1.20;;
69542;SDS011;56762;49.494;11.768;2023-04-19T12:03:04;2.78;;;1.10;;
69542;SDS011;56762;49.494;11.768;2023-04-19T12:05:32;2.90;;;1.17;;
69542;SDS011;56762;49.494;11.768;2023-04-19T12:08:01;2.90;;;0.93;;
69542;SDS011;56762;49.494;11.768;2023-04-19T12:10:30;4.38;;;1.20;;
69542;SDS011;56762;49.494;11.768;2023-04-19T12:12:59;3.15;;;1.30;;
69542;SDS011;56762;49.494;11.768;2023-04-19T12:18:17;3.03;;;0.90;;
69542;SDS011;56762;49.494;11.768;2023-04-19T12:20:46;2.45;;;0.88;;
69542;SDS011;56762;49.494;11.768;2023-04-19T12:23:15;3.70;;;0.47;;
69542;SDS011;56762;49.494;11.768;2023-04-19T12:25:45;4.50;;;0.88;;
69542;SDS011;56762;49.494;11.768;2023-04-19T12:28:14;3.67;;;0.77;;
69542;SDS011;56762;49.494;11.768;2023-04-19T12:30:43;1.97;;;0.80;;
69542;SDS011;56762;49.494;11.768;2023-04-19T12:33:10;2.42;;;0.70;;
69542;SDS011;56762;49.494;11.768;2023-04-19T12:35:40;2.05;;;0.60;;
69542;SDS011;56762;49.494;11.768;2023-04-19T12:38:10;2.20;;;0.70;;
69542;SDS011;56762;49.494;11.768;2023-04-19T12:40:38;1.45;;;0.50;;
69542;SDS011;56762;49.494;11.768;2023-04-19T12:43:05;1.47;;;0.50;;
69542;SDS011;56762;49.494;11.768;2023-04-19T12:45:34;2.88;;;0.85;;
69542;SDS011;56762;49.494;11.768;2023-04-19T12:48:02;3.05;;;0.80;;
69542;SDS011;56762;49.494;11.768;2023-04-19T12:50:30;2.00;;;0.80;;
69542;SDS011;56762;49.494;11.768;2023-04-19T12:53:00;2.22;;;0.60;;
69542;SDS011;56762;49.494;11.768;2023-04-19T12:55:27;1.73;;;0.57;;
69542;SDS011;56762;49.494;11.768;2023-04-19T12:57:55;2.97;;;1.05;;
69542;SDS011;56762;49.494;11.768;2023-04-19T13:00:23;2.28;;;0.80;;
69542;SDS011;56762;49.494;11.768;2023-04-19T13:02:51;2.83;;;0.60;;
69542;SDS011;56762;49.494;11.768;2023-04-19T13:05:19;2.17;;;0.70;;
69542;SDS011;56762;49.494;11.768;2023-04-19T13:07:48;2.97;;;0.77;;
69542;SDS011;56762;49.494;11.768;2023-04-19T13:10:17;2.72;;;1.02;;
69542;SDS011;56762;49.494;11.768;2023-04-19T13:12:46;3.00;;;0.82;;
69542;SDS011;56762;49.494;11.768;2023-04-19T13:15:14;2.92;;;0.80;;
69542;SDS011;56762;49.494;11.768;2023-04-19T13:17:42;2.42;;;1.10;;
69542;SDS011;56762;49.494;11.768;2023-04-19T13:20:11;2.67;;;1.00;;
69542;SDS011;56762;49.494;11.768;2023-04-19T13:22:39;1.83;;;0.80;;
69542;SDS011;56762;49.494;11.768;2023-04-19T13:25:08;2.75;;;1.10;;
69542;SDS011;56762;49.494;11.768;2023-04-19T13:27:37;4.72;;;1.55;;
69542;SDS011;56762;49.494;11.768;2023-04-19T13:30:06;2.75;;;1.02;;
69542;SDS011;56762;49.494;11.768;2023-04-19T13:32:34;3.93;;;1.37;;
69542;SDS011;56762;49.494;11.768;2023-04-19T13:35:03;3.83;;;1.10;;
69542;SDS011;56762;49.494;11.768;2023-04-19T13:37:31;3.20;;;1.10;;
69542;SDS011;56762;49.494;11.768;2023-04-19T13:40:00;1.95;;;0.88;;
69542;SDS011;56762;49.494;11.768;2023-04-19T13:42:45;11.82;;;3.80;;
69542;SDS011;56762;49.494;11.768;2023-04-19T13:45:13;14.63;;;4.60;;
69542;SDS011;56762;49.494;11.768;2023-04-19T13:47:41;2.13;;;1.00;;
69542;SDS011;56762;49.494;11.768;2023-04-19T13:50:09;2.70;;;1.00;;
69542;SDS011;56762;49.494;11.768;2023-04-19T13:52:38;2.97;;;1.17;;
69542;SDS011;56762;49.494;11.768;2023-04-19T13:55:06;3.10;;;1.00;;
69542;SDS011;56762;49.494;11.768;2023-04-19T13:57:35;4.40;;;0.90;;
69542;SDS011;56762;49.494;11.768;2023-04-19T14:00:06;3.42;;;1.33;;
69542;SDS011;56762;49.494;11.768;2023-04-19T14:02:35;3.90;;;1.00;;
69542;SDS011;56762;49.494;11.768;2023-04-19T14:05:04;5.07;;;1.25;;
69542;SDS011;56762;49.494;11.768;2023-04-19T14:07:33;2.05;;;0.70;;
69542;SDS011;56762;49.494;11.768;2023-04-19T14:10:01;2.70;;;0.90;;
69542;SDS011;56762;49.494;11.768;2023-04-19T14:12:29;2.97;;;0.88;;
69542;SDS011;56762;49.494;11.768;2023-04-19T14:14:56;2.90;;;0.80;;
69542;SDS011;56762;49.494;11.768;2023-04-19T14:17:25;2.90;;;0.95;;
69542;SDS011;56762;49.494;11.768;2023-04-19T14:19:53;3.30;;;1.20;;
69542;SDS011;56762;49.494;11.768;2023-04-19T14:22:22;2.77;;;0.80;;
69542;SDS011;56762;49.494;11.768;2023-04-19T14:24:50;3.20;;;0.88;;
69542;SDS011;56762;49.494;11.768;2023-04-19T14:27:18;3.47;;;1.30;;
69542;SDS011;56762;49.494;11.768;2023-04-19T14:29:46;2.20;;;1.10;;
69542;SDS011;56762;49.494;11.768;2023-04-19T14:32:13;2.70;;;1.10;;
69542;SDS011;56762;49.494;11.768;2023-04-19T14:34:53;4.80;;;0.90;;
69542;SDS011;56762;49.494;11.768;2023-04-19T14:37:22;2.35;;;0.80;;
69542;SDS011;56762;49.494;11.768;2023-04-19T14:39:51;4.40;;;0.90;;
69542;SDS011;56762;49.494;11.768;2023-04-19T14:42:19;2.83;;;1.00;;
69542;SDS011;56762;49.494;11.768;2023-04-19T14:44:49;3.03;;;0.95;;
69542;SDS011;56762;49.494;11.768;2023-04-19T14:47:18;3.37;;;0.83;;
69542;SDS011;56762;49.494;11.768;2023-04-19T14:49:47;3.17;;;1.08;;
69542;SDS011;56762;49.494;11.768;2023-04-19T14:52:16;2.63;;;1.20;;
69542;SDS011;56762;49.494;11.768;2023-04-19T14:54:44;1.77;;;0.90;;
69542;SDS011;56762;49.494;11.768;2023-04-19T14:57:13;3.65;;;1.23;;